Time;durP1;ratioP1;P1;durP2;ratioP2;P2;SDS_P1;SDS_P2;PMS_P1;PMS_P2;Temp;Humidity;BMP_temperature;BMP_pressure;BME280_temperature;BME280_humidity;BME280_pressure;Samples;Min_cycle;Max_cycle;Signal;HPM_P1;HPM_P2
2022/07/02 00:00:59;;;;;;;0.40;0.40;;;14.30;99.90;;;;;;5083811;28;20861;-73
2022/07/02 00:03:52;;;;;;;0.50;0.50;;;14.20;99.90;;;;;;5089289;28;20441;-74
2022/07/02 00:06:42;;;;;;;0.40;0.40;;;14.30;99.90;;;;;;5095311;28;20445;-74
2022/07/02 00:09:31;;;;;;;0.50;0.50;;;14.20;99.90;;;;;;5093302;28;20426;-73
2022/07/02 00:12:19;;;;;;;0.40;0.40;;;14.30;99.90;;;;;;5093923;28;20453;-77
2022/07/02 00:15:09;;;;;;;0.40;0.40;;;14.20;99.90;;;;;;5094486;28;20418;-76
2022/07/02 00:17:57;;;;;;;0.40;0.40;;;14.20;99.90;;;;;;5095599;27;20454;-74
2022/07/02 00:20:48;;;;;;;0.50;0.50;;;14.20;99.90;;;;;;5093443;28;20457;-75
2022/07/02 00:23:36;;;;;;;0.50;0.50;;;14.20;99.90;;;;;;5093299;28;20448;-74
2022/07/02 00:26:29;;;;;;;0.40;0.40;;;14.10;99.90;;;;;;5094340;28;20453;-74
2022/07/02 00:29:23;;;;;;;0.50;0.50;;;14.10;99.90;;;;;;5094373;28;20434;-74
2022/07/02 00:32:11;;;;;;;0.60;0.60;;;14.10;99.90;;;;;;5093549;28;20477;-73
2022/07/02 00:35:04;;;;;;;0.40;0.40;;;14.10;99.90;;;;;;5093860;28;20491;-74
2022/07/02 00:37:54;;;;;;;0.40;0.40;;;14.00;99.90;;;;;;5094071;28;20461;-74
2022/07/02 00:40:44;;;;;;;0.50;0.50;;;14.00;99.90;;;;;;5092666;28;20426;-76
2022/07/02 00:43:32;;;;;;;0.50;0.50;;;14.00;99.90;;;;;;5092887;28;20476;-73
2022/07/02 00:46:22;;;;;;;0.50;0.50;;;13.90;99.90;;;;;;5094298;28;20430;-72
2022/07/02 00:49:10;;;;;;;0.50;0.50;;;13.90;99.90;;;;;;5093502;28;20471;-74
2022/07/02 00:51:58;;;;;;;0.50;0.50;;;13.90;99.90;;;;;;5095263;27;20492;-75
2022/07/02 00:54:48;;;;;;;0.50;0.50;;;13.90;99.90;;;;;;5093369;28;20422;-75
2022/07/02 00:57:36;;;;;;;0.50;0.50;;;13.80;99.90;;;;;;5086854;28;20459;-75
2022/07/02 01:00:24;;;;;;;0.50;0.50;;;13.80;99.90;;;;;;5107419;28;20426;-74
2022/07/02 01:03:13;;;;;;;0.40;0.40;;;13.80;99.90;;;;;;5113285;28;20425;-74
2022/07/02 01:06:02;;;;;;;0.50;0.50;;;13.80;99.90;;;;;;5111978;28;20835;-73
2022/07/02 01:12:01;;;;;;;0.50;0.50;;;13.80;99.90;;;;;;5112703;28;20441;-74
2022/07/02 01:14:50;;;;;;;0.40;0.40;;;13.80;99.90;;;;;;5112556;28;20418;-73
2022/07/02 01:17:38;;;;;;;0.40;0.40;;;13.70;99.90;;;;;;5111949;28;20453;-73
2022/07/02 01:20:26;;;;;;;0.50;0.50;;;13.70;99.90;;;;;;5110913;28;20441;-71
2022/07/02 01:23:15;;;;;;;0.50;0.50;;;13.80;99.90;;;;;;5113739;28;20429;-72
2022/07/02 01:26:04;;;;;;;0.40;0.40;;;13.80;99.90;;;;;;5112579;28;20428;-73
2022/07/02 01:28:52;;;;;;;0.40;0.40;;;13.80;99.90;;;;;;5112510;28;21006;-74
2022/07/02 01:31:40;;;;;;;0.60;0.60;;;13.80;99.90;;;;;;5112058;28;20502;-75
2022/07/02 01:34:28;;;;;;;0.40;0.40;;;13.80;99.90;;;;;;5112739;28;20540;-74
2022/07/02 01:37:18;;;;;;;0.43;0.43;;;13.80;99.90;;;;;;5112208;28;20984;-75
2022/07/02 01:40:08;;;;;;;0.50;0.50;;;13.70;99.90;;;;;;5112235;28;20460;-74
2022/07/02 01:42:57;;;;;;;0.50;0.50;;;13.70;99.90;;;;;;5099240;28;20442;-73
2022/07/02 01:45:45;;;;;;;0.40;0.40;;;13.80;99.90;;;;;;5096211;28;20434;-73
2022/07/02 01:48:33;;;;;;;0.50;0.50;;;13.70;99.90;;;;;;5088591;28;20873;-72
2022/07/02 01:51:21;;;;;;;0.50;0.50;;;13.80;99.90;;;;;;5093065;28;20457;-75
2022/07/02 01:54:09;;;;;;;0.40;0.40;;;13.80;99.90;;;;;;5092799;28;20499;-73
2022/07/02 01:57:00;;;;;;;0.43;0.43;;;13.90;99.90;;;;;;5087541;28;20428;-74
2022/07/02 01:59:49;;;;;;;0.40;0.40;;;14.00;99.90;;;;;;5076321;28;20427;-77
2022/07/02 02:02:37;;;;;;;0.50;0.50;;;14.10;99.90;;;;;;5074299;28;20851;-72
2022/07/02 02:05:26;;;;;;;0.50;0.50;;;14.00;99.90;;;;;;5072590;28;20561;-73
2022/07/02 02:08:14;;;;;;;0.40;0.40;;;14.00;99.90;;;;;;5072883;28;20412;-74
2022/07/02 02:11:02;;;;;;;0.50;0.50;;;13.90;99.90;;;;;;5071602;28;20447;-74
2022/07/02 02:13:51;;;;;;;0.50;0.50;;;13.90;99.90;;;;;;5071906;28;20427;-72
2022/07/02 02:16:39;;;;;;;0.40;0.40;;;13.80;99.90;;;;;;5073060;28;20481;-74
2022/07/02 02:19:28;;;;;;;0.50;0.50;;;13.70;99.90;;;;;;5072247;28;20467;-73
2022/07/02 02:22:16;;;;;;;0.50;0.50;;;13.70;99.90;;;;;;5071823;28;20443;-73
2022/07/02 02:25:05;;;;;;;0.40;0.40;;;13.60;99.90;;;;;;5073080;28;20442;-73
2022/07/02 02:27:53;;;;;;;0.40;0.40;;;13.60;99.90;;;;;;5071511;28;20420;-75
2022/07/02 02:30:43;;;;;;;0.40;0.40;;;13.50;99.90;;;;;;5072080;28;20450;-75
2022/07/02 02:33:31;;;;;;;0.40;0.40;;;13.50;99.90;;;;;;5071789;28;20489;-74
2022/07/02 02:36:19;;;;;;;0.40;0.40;;;13.40;99.90;;;;;;5071666;28;20488;-75
2022/07/02 02:39:08;;;;;;;0.40;0.40;;;13.40;99.90;;;;;;5076129;28;20975;-76
2022/07/02 02:41:56;;;;;;;0.50;0.50;;;13.40;99.90;;;;;;5076027;28;20447;-74
2022/07/02 02:44:44;;;;;;;0.40;0.40;;;13.40;99.90;;;;;;5074672;28;20420;-74
2022/07/02 02:47:33;;;;;;;0.50;0.50;;;13.30;99.90;;;;;;5076791;28;20788;-74
2022/07/02 02:50:22;;;;;;;0.50;0.50;;;13.30;99.90;;;;;;5074967;28;20988;-78
2022/07/02 02:53:10;;;;;;;0.50;0.50;;;13.30;99.90;;;;;;5076160;28;20425;-74
2022/07/02 02:55:58;;;;;;;0.50;0.50;;;13.30;99.90;;;;;;5075982;28;20419;-74
2022/07/02 02:58:47;;;;;;;0.43;0.43;;;;;;;;;;5075714;28;20451;-75
2022/07/02 03:01:35;;;;;;;0.40;0.40;;;13.30;99.90;;;;;;5075561;28;20451;-74
2022/07/02 03:04:25;;;;;;;0.40;0.40;;;13.20;99.90;;;;;;5074103;28;20435;-73
2022/07/02 03:07:13;;;;;;;0.50;0.50;;;13.30;99.90;;;;;;5074960;28;20459;-73
2022/07/02 03:10:01;;;;;;;0.40;0.40;;;13.20;99.90;;;;;;5075910;28;20422;-75
2022/07/02 03:12:49;;;;;;;0.43;0.43;;;13.20;99.90;;;;;;5075955;28;20443;-73
2022/07/02 03:15:37;;;;;;;0.50;0.50;;;13.20;99.90;;;;;;5075744;28;20432;-75
2022/07/02 03:18:25;;;;;;;0.50;0.50;;;13.20;99.90;;;;;;5075615;28;20459;-73
2022/07/02 03:21:16;;;;;;;0.50;0.50;;;13.20;99.90;;;;;;5074792;28;20440;-75
2022/07/02 03:24:04;;;;;;;0.40;0.40;;;13.20;99.90;;;;;;5075660;28;20428;-73
2022/07/02 03:26:52;;;;;;;0.50;0.50;;;13.20;99.90;;;;;;5074275;28;20431;-73
2022/07/02 03:29:44;;;;;;;0.43;0.43;;;13.30;99.90;;;;;;5075132;28;20469;-74
2022/07/02 03:32:32;;;;;;;0.50;0.50;;;13.30;99.90;;;;;;5097048;28;20469;-75
2022/07/02 03:35:21;;;;;;;0.40;0.40;;;13.30;99.90;;;;;;5114896;28;20430;-72
2022/07/02 03:38:11;;;;;;;0.40;0.40;;;13.30;99.90;;;;;;5113529;28;20793;-75
2022/07/02 03:40:59;;;;;;;0.40;0.40;;;13.30;99.90;;;;;;5113211;28;20437;-73
2022/07/02 03:43:49;;;;;;;0.43;0.43;;;13.30;99.90;;;;;;5115142;28;20783;-73
2022/07/02 03:46:37;;;;;;;0.50;0.50;;;13.30;99.90;;;;;;5113895;28;20430;-74
2022/07/02 03:49:25;;;;;;;0.50;0.50;;;13.30;99.90;;;;;;5114217;28;20421;-74
2022/07/02 03:52:13;;;;;;;0.50;0.50;;;13.40;99.90;;;;;;5114663;28;20441;-76
2022/07/02 03:55:03;;;;;;;0.50;0.50;;;13.40;99.90;;;;;;5097642;28;21184;-73
2022/07/02 03:57:52;;;;;;;0.40;0.40;;;13.40;99.90;;;;;;5081858;28;20419;-74
2022/07/02 04:00:40;;;;;;;0.43;0.43;;;13.30;99.90;;;;;;5074645;28;20418;-74
2022/07/02 04:03:28;;;;;;;0.40;0.40;;;13.40;99.90;;;;;;5075274;28;20481;-75
2022/07/02 04:06:16;;;;;;;0.40;0.40;;;13.50;99.90;;;;;;5075767;28;20419;-75
2022/07/02 04:09:04;;;;;;;0.40;0.40;;;13.60;99.90;;;;;;5066391;28;20415;-76
2022/07/02 04:11:54;;;;;;;0.40;0.40;;;13.60;99.90;;;;;;5074694;28;20451;-76
2022/07/02 04:14:42;;;;;;;0.50;0.50;;;13.60;99.90;;;;;;5075142;28;20430;-74
2022/07/02 04:17:30;;;;;;;0.50;0.50;;;13.70;99.90;;;;;;5075156;28;20775;-73
2022/07/02 04:20:18;;;;;;;0.40;0.40;;;13.80;99.90;;;;;;5074221;28;20451;-73
2022/07/02 04:23:07;;;;;;;0.40;0.40;;;13.80;99.90;;;;;;5073744;28;20436;-74
2022/07/02 04:25:55;;;;;;;0.50;0.50;;;13.80;99.90;;;;;;5084202;28;20430;-72
2022/07/02 04:28:44;;;;;;;0.50;0.50;;;13.90;99.90;;;;;;5092274;28;20415;-76
2022/07/02 04:31:32;;;;;;;0.50;0.50;;;14.00;99.90;;;;;;5092317;28;20470;-74
2022/07/02 04:34:21;;;;;;;0.40;0.40;;;14.00;99.90;;;;;;5092031;28;20438;-73
2022/07/02 04:37:09;;;;;;;0.50;0.50;;;14.10;99.90;;;;;;5092607;28;20425;-74
2022/07/02 04:39:57;;;;;;;0.40;0.40;;;14.10;99.90;;;;;;5091998;28;20886;-73
2022/07/02 04:42:45;;;;;;;0.40;0.40;;;14.20;99.90;;;;;;5094355;28;20817;-74
2022/07/02 04:45:34;;;;;;;0.40;0.40;;;14.30;99.90;;;;;;5093091;28;20423;-73
2022/07/02 04:48:22;;;;;;;0.50;0.50;;;14.30;99.90;;;;;;5094058;28;20961;-73
2022/07/02 04:51:10;;;;;;;0.40;0.40;;;14.40;99.90;;;;;;5093082;28;20796;-72
2022/07/02 04:53:59;;;;;;;0.40;0.40;;;14.50;99.90;;;;;;5094599;28;20425;-74
2022/07/02 04:56:48;;;;;;;0.43;0.43;;;14.50;99.90;;;;;;5093856;28;20769;-73
2022/07/02 04:59:36;;;;;;;0.40;0.40;;;14.60;99.90;;;;;;5090908;28;20455;-73
2022/07/02 05:02:27;;;;;;;0.50;0.50;;;14.70;99.90;;;;;;5088426;28;20454;-73
2022/07/02 05:05:15;;;;;;;0.40;0.40;;;14.70;99.90;;;;;;5092530;28;20415;-73
2022/07/02 05:08:03;;;;;;;0.50;0.50;;;14.80;99.90;;;;;;5091704;28;20426;-74
2022/07/02 05:10:52;;;;;;;0.40;0.40;;;14.90;99.90;;;;;;5075016;28;20452;-73
2022/07/02 05:13:40;;;;;;;0.40;0.40;;;15.00;99.90;;;;;;5092547;28;20418;-74
2022/07/02 05:16:29;;;;;;;0.40;0.40;;;15.10;99.90;;;;;;5092895;28;20418;-73
2022/07/02 05:19:18;;;;;;;0.50;0.50;;;15.20;99.90;;;;;;5093102;28;20840;-73
2022/07/02 05:22:06;;;;;;;0.40;0.40;;;15.30;99.90;;;;;;5093447;28;20462;-75
2022/07/02 05:24:54;;;;;;;0.40;0.40;;;15.40;99.90;;;;;;5093099;28;20495;-73
2022/07/02 05:27:42;;;;;;;0.87;0.87;;;15.50;99.90;;;;;;5092582;28;20586;-73
2022/07/02 05:30:31;;;;;;;0.70;0.70;;;15.60;99.90;;;;;;5092634;28;20850;-74
2022/07/02 05:33:19;;;;;;;0.40;0.40;;;15.70;99.90;;;;;;5092970;28;20430;-73
2022/07/02 05:36:09;;;;;;;4.30;2.17;;;15.80;99.90;;;;;;5092772;28;20471;-73
2022/07/02 05:38:57;;;;;;;0.40;0.40;;;15.90;99.90;;;;;;5092886;28;20437;-73
2022/07/02 05:41:45;;;;;;;0.40;0.40;;;16.00;99.90;;;;;;5092280;28;20446;-79
2022/07/02 05:44:33;;;;;;;0.60;0.57;;;16.10;99.90;;;;;;5092064;28;20426;-74
2022/07/02 05:47:21;;;;;;;1.83;1.73;;;16.10;99.90;;;;;;5091748;28;20415;-73
2022/07/02 05:50:10;;;;;;;0.70;0.70;;;16.20;99.90;;;;;;5092059;28;20423;-73
2022/07/02 05:52:59;;;;;;;0.60;0.60;;;16.30;99.90;;;;;;5092887;28;20427;-72
2022/07/02 05:55:48;;;;;;;0.50;0.50;;;16.40;99.90;;;;;;5091299;28;20430;-73
2022/07/02 05:58:36;;;;;;;0.50;0.50;;;16.40;99.90;;;;;;5097960;28;20426;-78
2022/07/02 06:01:24;;;;;;;0.40;0.40;;;16.50;99.90;;;;;;5091207;28;20481;-74
2022/07/02 06:04:12;;;;;;;0.40;0.40;;;16.60;99.90;;;;;;5090568;28;20423;-75
2022/07/02 06:10:09;;;;;;;0.40;0.40;;;16.70;99.90;;;;;;5091841;28;20210;-75
2022/07/02 06:12:57;;;;;;;0.40;0.40;;;16.70;99.90;;;;;;5096470;28;20955;-73
2022/07/02 06:15:45;;;;;;;0.50;0.50;;;16.80;99.90;;;;;;5094325;28;20207;-73
2022/07/02 06:18:33;;;;;;;1.10;1.10;;;16.90;99.90;;;;;;5094553;28;20728;-72
2022/07/02 06:21:21;;;;;;;0.80;0.80;;;17.00;99.90;;;;;;5093887;28;20220;-73
2022/07/02 06:24:11;;;;;;;0.63;0.63;;;17.10;99.90;;;;;;5095022;28;20203;-75
2022/07/02 06:27:00;;;;;;;0.40;0.40;;;17.20;99.90;;;;;;5094524;28;20288;-73
2022/07/02 06:29:49;;;;;;;0.60;0.60;;;17.30;99.90;;;;;;5093994;28;20546;-75
2022/07/02 06:32:37;;;;;;;0.40;0.40;;;17.40;99.90;;;;;;5095472;28;20232;-76
2022/07/02 06:35:25;;;;;;;0.93;0.93;;;17.40;99.90;;;;;;5094075;28;20418;-79
2022/07/02 06:38:13;;;;;;;0.40;0.40;;;17.50;99.90;;;;;;5095223;28;20196;-72
2022/07/02 06:41:01;;;;;;;0.40;0.40;;;17.50;99.90;;;;;;5094764;28;20227;-75
2022/07/02 06:43:50;;;;;;;0.87;0.87;;;17.60;99.90;;;;;;5095121;28;20218;-75
2022/07/02 06:46:38;;;;;;;0.40;0.40;;;17.60;99.90;;;;;;5095014;28;20203;-75
2022/07/02 06:49:27;;;;;;;0.95;0.95;;;17.70;99.90;;;;;;5093591;28;20200;-76
2022/07/02 06:52:16;;;;;;;0.40;0.40;;;17.90;99.90;;;;;;5093477;28;20288;-77
2022/07/02 06:55:05;;;;;;;0.40;0.40;;;18.00;99.90;;;;;;5094714;28;20673;-76
2022/07/02 06:57:54;;;;;;;0.40;0.40;;;18.00;99.90;;;;;;5087871;28;20241;-74
2022/07/02 07:00:43;;;;;;;0.40;0.40;;;18.10;99.90;;;;;;5092219;28;20272;-77
2022/07/02 07:03:31;;;;;;;1.50;1.02;;;18.20;99.90;;;;;;5092148;28;20207;-78
2022/07/02 07:06:20;;;;;;;0.50;0.50;;;18.20;99.90;;;;;;5094679;28;20325;-78
2022/07/02 07:09:09;;;;;;;0.40;0.40;;;18.30;99.90;;;;;;5095046;28;20692;-74
2022/07/02 07:11:57;;;;;;;0.40;0.40;;;18.40;99.90;;;;;;5093085;28;20224;-73
2022/07/02 07:14:46;;;;;;;0.40;0.40;;;18.50;99.90;;;;;;5093576;28;20235;-73
2022/07/02 07:17:35;;;;;;;0.40;0.40;;;18.60;99.90;;;;;;5092530;28;20242;-73
2022/07/02 07:20:27;;;;;;;0.40;0.40;;;18.60;99.90;;;;;;5094206;28;20215;-73
2022/07/02 07:23:15;;;;;;;0.65;0.65;;;18.70;99.90;;;;;;5093778;28;20203;-73
2022/07/02 07:26:03;;;;;;;0.40;0.40;;;18.80;99.90;;;;;;5085073;28;20253;-73
2022/07/02 07:28:52;;;;;;;0.40;0.40;;;18.80;99.90;;;;;;5094306;28;20204;-76
2022/07/02 07:31:41;;;;;;;2.35;0.95;;;18.90;99.90;;;;;;5092706;28;20696;-75
2022/07/02 07:34:31;;;;;;;0.40;0.40;;;19.00;99.90;;;;;;5094718;28;20279;-75
2022/07/02 07:37:19;;;;;;;0.40;0.40;;;19.20;99.90;;;;;;5094331;28;20200;-75
2022/07/02 07:40:11;;;;;;;0.40;0.40;;;19.20;99.90;;;;;;5056393;28;20211;-76
2022/07/02 07:42:59;;;;;;;0.43;0.43;;;19.30;99.90;;;;;;5072329;28;20196;-73
2022/07/02 07:45:47;;;;;;;0.40;0.40;;;19.40;99.90;;;;;;5073856;28;20704;-75
2022/07/02 07:48:35;;;;;;;0.50;0.50;;;19.50;99.90;;;;;;5074104;28;20230;-76
2022/07/02 07:51:25;;;;;;;0.43;0.43;;;19.50;99.90;;;;;;5073114;28;20679;-74
2022/07/02 07:54:13;;;;;;;0.40;0.40;;;19.60;99.90;;;;;;5073908;28;20282;-77
2022/07/02 07:57:01;;;;;;;5.18;4.97;;;19.60;99.90;;;;;;5081754;28;20671;-75
2022/07/02 07:59:49;;;;;;;0.60;0.60;;;19.60;99.90;;;;;;5105655;28;20231;-74
2022/07/02 08:02:37;;;;;;;0.40;0.40;;;19.80;99.90;;;;;;5096299;28;20220;-76
2022/07/02 08:05:26;;;;;;;0.45;0.45;;;19.90;99.90;;;;;;5093780;28;20223;-74
2022/07/02 08:08:16;;;;;;;0.50;0.50;;;19.90;99.90;;;;;;5093516;28;20257;-76
2022/07/02 08:11:04;;;;;;;1.08;0.98;;;20.00;99.90;;;;;;5077046;28;20212;-72
2022/07/02 08:13:52;;;;;;;0.40;0.40;;;20.10;99.90;;;;;;5092836;28;20247;-76
2022/07/02 08:16:41;;;;;;;0.60;0.60;;;20.20;99.90;;;;;;5093423;28;20211;-74
2022/07/02 08:19:29;;;;;;;0.73;0.50;;;20.30;99.90;;;;;;5094160;28;20207;-75
2022/07/02 08:22:19;;;;;;;0.45;0.45;;;20.30;99.90;;;;;;5092406;28;20281;-75
2022/07/02 08:25:09;;;;;;;0.68;0.68;;;20.40;99.90;;;;;;5092608;28;20204;-76
2022/07/02 08:27:57;;;;;;;0.40;0.40;;;20.50;99.90;;;;;;5092791;28;20200;-78
2022/07/02 08:30:45;;;;;;;0.63;0.63;;;20.60;99.90;;;;;;5092936;28;20211;-75
2022/07/02 08:33:34;;;;;;;0.50;0.50;;;20.60;99.90;;;;;;5092505;28;20231;-73
2022/07/02 08:36:22;;;;;;;0.50;0.50;;;20.60;99.90;;;;;;5093659;28;20734;-72
2022/07/02 08:39:10;;;;;;;1.30;0.93;;;20.70;99.90;;;;;;5093706;28;20260;-73
2022/07/02 08:42:01;;;;;;;0.40;0.40;;;20.70;99.90;;;;;;5092936;28;20581;-74
2022/07/02 08:44:49;;;;;;;0.60;0.60;;;20.70;99.90;;;;;;5093158;28;20200;-74
2022/07/02 08:47:40;;;;;;;0.50;0.50;;;20.70;99.90;;;;;;5092467;28;20563;-76
2022/07/02 08:50:28;;;;;;;0.50;0.50;;;20.60;99.90;;;;;;5092790;28;20686;-74
2022/07/02 08:53:18;;;;;;;0.60;0.60;;;20.70;99.90;;;;;;5093507;28;20199;-74
2022/07/02 08:56:07;;;;;;;0.40;0.40;;;20.80;99.90;;;;;;5091893;28;20208;-75
2022/07/02 08:58:57;;;;;;;0.50;0.50;;;20.90;99.90;;;;;;5071541;28;20666;-75
2022/07/02 09:01:47;;;;;;;0.50;0.50;;;21.00;99.90;;;;;;5072999;28;20225;-74
2022/07/02 09:04:37;;;;;;;0.43;0.43;;;21.20;99.90;;;;;;5092503;28;20208;-74
2022/07/02 09:07:26;;;;;;;0.40;0.40;;;21.10;99.90;;;;;;5093143;28;20204;-74
2022/07/02 09:10:17;;;;;;;0.50;0.50;;;21.20;99.90;;;;;;5093797;28;20200;-77
2022/07/02 09:13:07;;;;;;;0.60;0.60;;;21.20;99.90;;;;;;5092783;28;20191;-75
2022/07/02 09:15:56;;;;;;;0.40;0.40;;;21.20;99.90;;;;;;5091461;28;20202;-72
2022/07/02 09:18:44;;;;;;;0.50;0.50;;;21.20;99.90;;;;;;5092532;28;20278;-74
2022/07/02 09:21:41;;;;;;;0.40;0.40;;;21.20;99.90;;;;;;5091989;28;20227;-74
2022/07/02 09:24:31;;;;;;;0.40;0.40;;;21.30;99.90;;;;;;5090933;28;20277;-78
2022/07/02 09:27:19;;;;;;;0.40;0.40;;;21.30;99.90;;;;;;5091654;28;20208;-73
2022/07/02 09:30:09;;;;;;;0.40;0.40;;;21.40;99.90;;;;;;5092568;28;20200;-73
2022/07/02 09:36:11;;;;;;;0.55;0.55;;;21.60;99.90;;;;;;5092498;28;20266;-75
2022/07/02 09:38:59;;;;;;;0.40;0.40;;;21.50;99.90;;;;;;5090661;28;20207;-74
2022/07/02 09:41:47;;;;;;;1.85;1.40;;;21.70;99.90;;;;;;5091570;28;20219;-74
2022/07/02 09:44:35;;;;;;;0.60;0.60;;;21.60;99.90;;;;;;5090330;28;20657;-74
2022/07/02 09:47:31;;;;;;;0.50;0.50;;;21.60;99.90;;;;;;5092106;28;20200;-75
2022/07/02 09:50:23;;;;;;;0.50;0.50;;;21.70;99.90;;;;;;5091287;28;20891;-76
2022/07/02 09:53:13;;;;;;;0.40;0.40;;;21.70;99.30;;;;;;5090624;28;20196;-73
2022/07/02 09:56:04;;;;;;;1.30;0.88;;;21.80;99.30;;;;;;5090615;28;20199;-74
2022/07/02 09:58:52;;;;;;;0.50;0.50;;;21.80;99.90;;;;;;5071381;28;20196;-74
2022/07/02 10:01:44;;;;;;;0.40;0.40;;;21.80;99.10;;;;;;5073396;28;20228;-76
2022/07/02 10:04:34;;;;;;;0.40;0.40;;;21.80;99.60;;;;;;5073662;28;20200;-75
2022/07/02 10:07:25;;;;;;;0.50;0.50;;;21.80;99.10;;;;;;5071899;28;20197;-75
2022/07/02 10:10:13;;;;;;;0.50;0.50;;;21.80;99.50;;;;;;5069386;28;20235;-75
2022/07/02 10:13:01;;;;;;;0.40;0.40;;;22.00;99.30;;;;;;5071769;28;20196;-73
2022/07/02 10:15:54;;;;;;;0.40;0.40;;;22.00;99.40;;;;;;5071993;28;20254;-74
2022/07/02 10:18:43;;;;;;;0.40;0.40;;;22.10;99.90;;;;;;5071242;28;20201;-77
2022/07/02 10:21:31;;;;;;;0.50;0.50;;;22.00;99.90;;;;;;5071223;28;20723;-76
2022/07/02 10:24:23;;;;;;;0.50;0.50;;;21.90;99.30;;;;;;5069538;28;20262;-74
2022/07/02 10:27:12;;;;;;;0.40;0.40;;;22.10;99.10;;;;;;5074501;28;20200;-74
2022/07/02 10:30:00;;;;;;;0.40;0.40;;;22.30;99.40;;;;;;5089904;28;20296;-75
2022/07/02 10:32:57;;;;;;;0.40;0.40;;;22.50;98.50;;;;;;5091392;28;20591;-72
2022/07/02 10:35:47;;;;;;;0.40;0.40;;;22.60;98.60;;;;;;5090115;28;20668;-74
2022/07/02 10:38:38;;;;;;;0.40;0.40;;;22.80;97.60;;;;;;5091606;28;20621;-73
2022/07/02 10:41:29;;;;;;;0.40;0.40;;;22.70;96.60;;;;;;5090374;28;20712;-73
2022/07/02 10:44:17;;;;;;;0.40;0.40;;;22.90;97.00;;;;;;5091744;28;20708;-75
2022/07/02 10:47:19;;;;;;;0.40;0.40;;;23.00;97.80;;;;;;5092161;28;20218;-74
2022/07/02 10:50:08;;;;;;;0.40;0.40;;;23.20;96.30;;;;;;5091132;28;20200;-73
2022/07/02 10:52:56;;;;;;;0.40;0.40;;;23.30;96.00;;;;;;5091266;28;20199;-74
2022/07/02 10:55:59;;;;;;;0.40;0.40;;;23.50;97.70;;;;;;5092296;28;20203;-73
2022/07/02 10:58:48;;;;;;;0.40;0.40;;;23.70;98.40;;;;;;5075457;28;20192;-73
2022/07/02 11:01:36;;;;;;;0.40;0.40;;;23.80;97.90;;;;;;5075991;28;20223;-73
2022/07/02 11:04:25;;;;;;;0.47;0.47;;;23.60;95.20;;;;;;5075014;28;20211;-74
2022/07/02 11:07:14;;;;;;;0.40;0.40;;;23.40;95.50;;;;;;5074161;28;20209;-73
2022/07/02 11:10:07;;;;;;;0.40;0.40;;;23.40;96.80;;;;;;5075532;28;20669;-75
2022/07/02 11:13:00;;;;;;;0.40;0.40;;;23.60;95.60;;;;;;5075786;28;20189;-71
2022/07/02 11:15:50;;;;;;;0.40;0.40;;;23.60;94.10;;;;;;5075889;28;20578;-74
2022/07/02 11:18:46;;;;;;;0.40;0.40;;;23.60;94.30;;;;;;5075298;28;20769;-75
2022/07/02 11:21:39;;;;;;;0.40;0.40;;;23.80;93.40;;;;;;5075834;28;20216;-74
2022/07/02 11:24:30;;;;;;;0.40;0.40;;;23.90;93.30;;;;;;5074628;28;20219;-72
2022/07/02 11:27:18;;;;;;;0.40;0.40;;;24.10;93.70;;;;;;5073418;28;20204;-75
2022/07/02 11:30:07;;;;;;;0.40;0.40;;;24.20;91.60;;;;;;5074885;28;20197;-73
2022/07/02 11:32:57;;;;;;;0.40;0.40;;;24.10;92.70;;;;;;5074021;28;20199;-73
2022/07/02 11:35:51;;;;;;;0.40;0.40;;;24.20;93.90;;;;;;5073888;28;20212;-71
2022/07/02 11:38:40;;;;;;;0.40;0.40;;;24.40;94.10;;;;;;5073494;28;20629;-73
2022/07/02 11:41:35;;;;;;;0.40;0.40;;;24.70;92.50;;;;;;5074138;28;20216;-73
2022/07/02 11:44:24;;;;;;;0.40;0.40;;;24.70;91.40;;;;;;5069662;28;20560;-71
2022/07/02 11:47:12;;;;;;;0.40;0.40;;;24.80;92.40;;;;;;5072274;28;20207;-73
2022/07/02 11:50:02;;;;;;;0.68;0.68;;;24.90;90.20;;;;;;5073384;28;20239;-73
2022/07/02 11:52:50;;;;;;;0.40;0.40;;;24.80;88.20;;;;;;5074051;28;20220;-72
2022/07/02 11:55:38;;;;;;;0.40;0.40;;;24.80;88.10;;;;;;5073569;28;20203;-71
2022/07/02 11:58:26;;;;;;;0.40;0.40;;;24.90;89.50;;;;;;5074537;28;20250;-71
2022/07/02 12:01:19;;;;;;;0.40;0.40;;;25.00;88.40;;;;;;5074360;28;20766;-73
2022/07/02 12:04:10;;;;;;;0.50;0.50;;;25.30;86.30;;;;;;5067027;28;20217;-73
2022/07/02 12:07:00;;;;;;;0.40;0.40;;;25.40;84.40;;;;;;5100198;28;20203;-71
2022/07/02 12:09:49;;;;;;;0.40;0.40;;;25.50;84.20;;;;;;5093694;28;20681;-72
2022/07/02 12:12:37;;;;;;;0.40;0.40;;;25.50;85.00;;;;;;5092392;28;20573;-72
2022/07/02 12:15:25;;;;;;;0.40;0.40;;;25.50;82.20;;;;;;5093529;28;20269;-73
2022/07/02 12:18:18;;;;;;;0.70;0.55;;;25.40;83.90;;;;;;5093532;28;20214;-73
2022/07/02 12:21:10;;;;;;;1.20;1.10;;;25.10;84.40;;;;;;5092235;28;20230;-72
2022/07/02 12:24:00;;;;;;;0.40;0.40;;;25.00;83.10;;;;;;5093713;28;20685;-73
2022/07/02 12:26:49;;;;;;;0.40;0.40;;;25.10;82.90;;;;;;5092600;28;20207;-73
2022/07/02 12:29:54;;;;;;;0.40;0.40;;;25.10;81.30;;;;;;5093080;28;20192;-73
2022/07/02 12:32:42;;;;;;;0.50;0.50;;;25.20;83.40;;;;;;5091120;28;20228;-72
2022/07/02 12:35:31;;;;;;;0.40;0.40;;;25.40;82.30;;;;;;5091806;28;20196;-73
2022/07/02 12:38:19;;;;;;;0.40;0.40;;;25.70;82.60;;;;;;5091810;28;20245;-72
2022/07/02 12:41:08;;;;;;;0.40;0.40;;;25.80;85.30;;;;;;5091451;28;20230;-72
2022/07/02 12:43:56;;;;;;;0.40;0.40;;;25.90;79.70;;;;;;5091762;28;20216;-72
2022/07/02 12:46:46;;;;;;;0.40;0.40;;;26.00;80.90;;;;;;5091327;28;20204;-72
2022/07/02 12:49:34;;;;;;;0.40;0.40;;;26.40;78.80;;;;;;5092437;28;20199;-71
2022/07/02 12:52:23;;;;;;;0.40;0.40;;;27.40;78.70;;;;;;5092453;28;20731;-71
2022/07/02 12:55:21;;;;;;;0.70;0.70;;;31.10;74.10;;;;;;5092578;28;20215;-71
2022/07/02 12:58:12;;;;;;;0.40;0.40;;;34.90;60.00;;;;;;5087547;28;20602;-71
2022/07/02 13:01:01;;;;;;;0.73;0.73;;;36.10;54.20;;;;;;5091099;28;20220;-71
2022/07/02 13:03:49;;;;;;;0.50;0.50;;;37.30;51.60;;;;;;5092288;28;20219;-71
2022/07/02 13:06:37;;;;;;;0.40;0.40;;;38.70;48.40;;;;;;5090383;28;20230;-71
2022/07/02 13:09:26;;;;;;;0.40;0.40;;;40.50;45.40;;;;;;5091370;28;20196;-70
2022/07/02 13:12:15;;;;;;;1.25;0.60;;;39.60;45.30;;;;;;5092240;28;20227;-71
2022/07/02 13:15:06;;;;;;;0.40;0.40;;;38.40;43.00;;;;;;5083008;28;20212;-71
2022/07/02 13:17:54;;;;;;;0.40;0.40;;;38.10;42.70;;;;;;5092000;28;20206;-73
2022/07/02 13:20:44;;;;;;;0.40;0.40;;;39.00;42.80;;;;;;5088994;28;20227;-73
2022/07/02 13:23:32;;;;;;;0.65;0.65;;;39.40;41.00;;;;;;5090848;28;20622;-73
2022/07/02 13:26:20;;;;;;;0.40;0.40;;;39.20;41.90;;;;;;5092056;28;20196;-73
2022/07/02 13:29:08;;;;;;;0.50;0.50;;;40.50;40.90;;;;;;5089891;28;20232;-73
2022/07/02 13:31:59;;;;;;;0.50;0.50;;;41.40;39.20;;;;;;5090603;28;20230;-73
2022/07/02 13:34:47;;;;;;;0.50;0.50;;;42.40;38.30;;;;;;5091745;28;20224;-72
2022/07/02 13:37:37;;;;;;;0.50;0.50;;;44.20;36.90;;;;;;5090583;28;20196;-73
2022/07/02 13:40:25;;;;;;;0.50;0.50;;;44.80;34.70;;;;;;5091187;28;20207;-73
2022/07/02 13:43:13;;;;;;;0.60;0.60;;;46.10;34.50;;;;;;5097992;28;20200;-73
2022/07/02 13:46:01;;;;;;;0.50;0.50;;;45.50;33.40;;;;;;5096503;28;20199;-73
2022/07/02 13:48:51;;;;;;;0.70;0.70;;;45.60;33.10;;;;;;5093770;28;20284;-73
2022/07/02 13:51:39;;;;;;;0.50;0.50;;;45.60;33.90;;;;;;5095737;28;20716;-73
2022/07/02 13:54:27;;;;;;;0.50;0.50;;;46.00;33.30;;;;;;5093645;28;20216;-73
2022/07/02 13:57:15;;;;;;;0.50;0.50;;;46.60;32.10;;;;;;5091163;28;20205;-72
2022/07/02 14:00:07;;;;;;;0.50;0.50;;;47.10;32.00;;;;;;5096774;28;20203;-72
2022/07/02 14:02:55;;;;;;;0.60;0.60;;;47.40;31.70;;;;;;5096448;28;20206;-73
2022/07/02 14:05:44;;;;;;;0.50;0.50;;;47.40;31.50;;;;;;5099937;28;20686;-72
2022/07/02 14:08:32;;;;;;;0.60;0.60;;;48.00;31.60;;;;;;5099612;28;20678;-73
2022/07/02 14:11:21;;;;;;;0.55;0.55;;;48.50;31.70;;;;;;5097479;28;20214;-73
2022/07/02 14:14:09;;;;;;;0.50;0.50;;;48.40;30.10;;;;;;5099516;28;20223;-73
2022/07/02 14:16:57;;;;;;;0.60;0.60;;;49.00;30.90;;;;;;5098943;28;20215;-73
2022/07/02 14:19:46;;;;;;;0.63;0.63;;;48.80;30.70;;;;;;5102323;28;20273;-73
2022/07/02 14:22:38;;;;;;;0.60;0.60;;;48.90;30.70;;;;;;5095650;28;20226;-73
2022/07/02 14:25:26;;;;;;;0.65;0.65;;;48.80;31.10;;;;;;5092029;28;20289;-73
2022/07/02 14:28:17;;;;;;;0.60;0.60;;;49.00;31.20;;;;;;5090974;28;20672;-73
2022/07/02 14:31:05;;;;;;;1.00;1.00;;;49.20;30.10;;;;;;5090167;28;20230;-73
2022/07/02 14:33:54;;;;;;;0.60;0.60;;;49.30;30.00;;;;;;5095876;28;20215;-73
2022/07/02 14:36:42;;;;;;;0.60;0.60;;;49.40;29.40;;;;;;5095116;28;20203;-73
2022/07/02 14:39:31;;;;;;;0.70;0.70;;;49.10;29.10;;;;;;5094671;28;20196;-73
2022/07/02 14:42:21;;;;;;;0.70;0.70;;;48.90;29.30;;;;;;5093866;28;20258;-73
2022/07/02 14:45:15;;;;;;;0.60;0.60;;;49.10;29.30;;;;;;5093860;28;20199;-73
2022/07/02 14:48:04;;;;;;;0.60;0.60;;;49.10;29.10;;;;;;5093501;28;20274;-73
2022/07/02 14:50:52;;;;;;;0.70;0.70;;;48.70;28.80;;;;;;5095117;28;20223;-73